createdAt,value
2019-04-26T00:00:56.283Z,81.90
2019-04-26T00:03:33.446Z,84.20
2019-04-26T00:06:01.565Z,84.40
2019-04-26T00:08:29.318Z,84.60
2019-04-26T00:11:16.095Z,84.90
2019-04-26T00:14:12.610Z,83.80
2019-04-26T00:17:04.664Z,84.10
2019-04-26T00:19:32.786Z,85.60
2019-04-26T00:22:00.926Z,85.60
2019-04-26T00:24:29.195Z,86.00
2019-04-26T00:26:57.133Z,85.90
2019-04-26T00:29:24.861Z,84.40
2019-04-26T00:31:53.344Z,83.80
2019-04-26T00:34:21.709Z,84.40
2019-04-26T00:36:49.669Z,82.00
2019-04-26T00:39:18.215Z,82.10
2019-04-26T00:41:46.617Z,80.70
2019-04-26T00:44:14.876Z,81.40
2019-04-26T00:46:47.111Z,81.90
2019-04-26T00:49:17.081Z,81.60
2019-04-26T00:51:45.493Z,81.30
2019-04-26T00:54:15.551Z,81.50
2019-04-26T00:56:43.590Z,82.30
2019-04-26T00:59:15.155Z,83.30
2019-04-26T01:01:48.217Z,83.00
2019-04-26T01:04:17.082Z,84.40
2019-04-26T01:06:46.875Z,82.60
2019-04-26T01:09:15.936Z,84.00
2019-04-26T01:11:43.790Z,83.00
2019-04-26T01:14:11.688Z,81.60
2019-04-26T01:16:39.599Z,83.70
2019-04-26T01:19:10.601Z,83.50
2019-04-26T01:21:45.156Z,83.70
2019-04-26T01:24:14.374Z,82.80
2019-04-26T01:26:43.202Z,81.20
2019-04-26T01:29:13.757Z,81.80
2019-04-26T01:32:07.310Z,81.60
2019-04-26T01:34:35.922Z,81.40
2019-04-26T01:37:03.998Z,81.30
2019-04-26T01:39:33.020Z,81.70
2019-04-26T01:42:09.584Z,81.10
2019-04-26T01:45:10.780Z,81.00
2019-04-26T01:47:39.287Z,80.60
2019-04-26T01:50:07.669Z,80.10
2019-04-26T01:52:35.724Z,79.70
2019-04-26T01:55:05.038Z,79.60
2019-04-26T01:57:33.320Z,79.60
2019-04-26T02:00:14.583Z,80.70
2019-04-26T02:02:49.713Z,81.40
2019-04-26T02:05:22.672Z,81.00
2019-04-26T02:07:52.880Z,80.60
2019-04-26T02:10:24.123Z,80.90
2019-04-26T02:12:54.266Z,79.50
2019-04-26T02:15:27.081Z,81.00
2019-04-26T02:17:57.003Z,80.00
2019-04-26T02:21:22.053Z,79.90
2019-04-26T02:24:04.881Z,80.70
2019-04-26T02:26:34.938Z,80.40
2019-04-26T02:29:07.908Z,80.70
2019-04-26T02:31:37.725Z,81.40
2019-04-26T02:34:06.479Z,80.90
2019-04-26T02:36:53.047Z,81.70
2019-04-26T02:39:19.298Z,80.90
2019-04-26T02:41:50.031Z,80.90
2019-04-26T02:44:22.099Z,81.10
2019-04-26T02:47:26.682Z,81.60
2019-04-26T02:50:03.016Z,82.00
2019-04-26T02:52:46.639Z,81.50
2019-04-26T02:55:46.855Z,81.80
2019-04-26T02:58:15.951Z,82.40
2019-04-26T03:00:45.207Z,83.70
2019-04-26T03:03:13.955Z,83.00
2019-04-26T03:05:43.458Z,81.40
2019-04-26T03:08:17.484Z,82.90
2019-04-26T03:11:11.869Z,82.80
2019-04-26T03:14:01.721Z,82.90
2019-04-26T03:16:45.123Z,83.80
2019-04-26T03:19:56.929Z,84.80
2019-04-26T03:23:20.012Z,85.70
2019-04-26T03:26:26.183Z,88.10
2019-04-26T03:29:15.328Z,88.30
2019-04-26T03:32:22.341Z,89.80
2019-04-26T03:35:21.168Z,89.40
2019-04-26T03:38:16.289Z,90.00
2019-04-26T03:41:02.896Z,91.10
2019-04-26T03:44:04.273Z,91.80
2019-04-26T03:46:55.881Z,91.90
2019-04-26T03:50:10.607Z,92.10
2019-04-26T03:53:38.274Z,91.40
2019-04-26T03:56:56.514Z,90.70
2019-04-26T03:59:40.723Z,90.90
2019-04-26T04:02:39.264Z,91.50
2019-04-26T04:05:31.579Z,92.30
2019-04-26T04:08:02.664Z,92.60
2019-04-26T04:10:49.216Z,93.20
2019-04-26T04:13:53.305Z,93.40
2019-04-26T04:17:17.915Z,92.50
2019-04-26T04:21:01.360Z,92.00
2019-04-26T04:24:04.971Z,92.30
2019-04-26T04:27:01.278Z,92.70
2019-04-26T04:29:54.989Z,93.40
2019-04-26T04:32:49.650Z,93.80
2019-04-26T04:35:20.858Z,93.40
2019-04-26T04:38:08.360Z,93.00
2019-04-26T04:41:15.626Z,93.50
2019-04-26T04:44:02.154Z,93.20
2019-04-26T04:47:25.797Z,92.80
2019-04-26T04:50:18.638Z,93.20
2019-04-26T04:53:25.030Z,92.50
2019-04-26T04:56:37.614Z,92.90
2019-04-26T04:59:10.482Z,92.40
2019-04-26T05:02:21.191Z,92.70
2019-04-26T05:05:45.255Z,92.30
2019-04-26T05:08:37.898Z,91.70
2019-04-26T05:11:16.436Z,91.90
2019-04-26T05:14:10.268Z,92.00
2019-04-26T05:17:30.248Z,91.90
2019-04-26T05:20:37.809Z,91.80
2019-04-26T05:24:05.261Z,92.40
2019-04-26T05:27:39.911Z,92.30
2019-04-26T05:31:01.814Z,92.10
2019-04-26T05:34:03.700Z,92.40
2019-04-26T05:37:17.384Z,92.90
2019-04-26T05:40:17.819Z,92.60
2019-04-26T05:43:32.341Z,92.70
2019-04-26T05:46:51.689Z,92.40
2019-04-26T05:50:33.763Z,91.80
2019-04-26T05:54:04.328Z,91.30
2019-04-26T05:57:04.450Z,90.40
2019-04-26T06:00:01.116Z,88.80
2019-04-26T06:03:01.243Z,89.00
2019-04-26T06:06:27.915Z,89.00
2019-04-26T06:09:56.505Z,89.90
2019-04-26T06:13:09.569Z,89.80
2019-04-26T06:16:00.085Z,89.20
2019-04-26T06:18:59.593Z,88.50
2019-04-26T06:21:47.073Z,88.30
2019-04-26T06:25:28.738Z,89.10
2019-04-26T06:28:07.254Z,88.10
2019-04-26T06:31:13.788Z,88.80
2019-04-26T06:34:06.126Z,90.00
2019-04-26T06:36:51.616Z,90.40
2019-04-26T06:39:40.936Z,89.70
2019-04-26T06:43:00.633Z,90.40
2019-04-26T06:46:32.190Z,90.10
2019-04-26T06:50:03.405Z,89.20
2019-04-26T06:52:38.982Z,87.20
2019-04-26T06:55:35.177Z,85.60
2019-04-26T06:58:45.662Z,78.70
2019-04-26T07:01:43.006Z,80.40
2019-04-26T07:05:05.398Z,78.80
2019-04-26T07:08:03.078Z,77.30
2019-04-26T07:11:09.635Z,73.80
2019-04-26T07:14:07.241Z,72.70
2019-04-26T07:16:49.215Z,72.80
2019-04-26T07:20:12.165Z,72.20
2019-04-26T07:23:34.694Z,71.20
2019-04-26T07:27:22.080Z,71.00
2019-04-26T07:30:53.090Z,71.10
2019-04-26T07:34:07.292Z,69.30
2019-04-26T07:37:35.875Z,70.10
2019-04-26T07:41:15.061Z,69.60
2019-04-26T07:44:28.829Z,66.80
2019-04-26T07:48:16.914Z,66.90
2019-04-26T07:51:56.203Z,67.00
2019-04-26T07:55:22.731Z,67.30
2019-04-26T08:02:21.926Z,69.00
2019-04-26T08:05:05.796Z,68.40
2019-04-26T08:07:40.390Z,63.40
2019-04-26T08:10:15.076Z,64.10
2019-04-26T08:12:51.008Z,62.20
2019-04-26T08:15:55.397Z,60.50
2019-04-26T08:18:36.911Z,58.90
2019-04-26T08:21:18.385Z,57.50
2019-04-26T08:24:02.067Z,56.80
2019-04-26T08:26:33.554Z,56.90
2019-04-26T08:29:06.645Z,55.40
2019-04-26T08:31:38.349Z,51.80
2019-04-26T08:34:12.354Z,50.70
2019-04-26T08:36:52.020Z,49.70
2019-04-26T08:39:32.505Z,49.00
2019-04-26T08:41:57.947Z,49.40
2019-04-26T08:45:04.322Z,47.30
2019-04-26T08:47:53.506Z,47.60
2019-04-26T08:50:27.249Z,46.50
2019-04-26T08:52:59.102Z,44.70
2019-04-26T08:55:29.243Z,43.90
2019-04-26T08:58:05.096Z,43.90
2019-04-26T09:00:47.893Z,43.40
2019-04-26T09:03:27.720Z,42.40
2019-04-26T09:06:13.095Z,43.70
2019-04-26T09:08:44.827Z,40.60
2019-04-26T09:11:25.423Z,39.60
2019-04-26T09:13:49.887Z,38.30
2019-04-26T09:16:20.216Z,38.20
2019-04-26T09:18:54.172Z,38.50
2019-04-26T09:21:28.937Z,38.10
2019-04-26T09:24:26.580Z,38.40
2019-04-26T09:27:08.947Z,39.80
2019-04-26T09:29:56.252Z,41.10
2019-04-26T09:32:29.346Z,39.30
2019-04-26T09:34:57.227Z,39.10
2019-04-26T09:37:25.081Z,39.20
2019-04-26T09:39:53.030Z,38.60
2019-04-26T09:42:39.298Z,35.60
2019-04-26T09:45:22.362Z,37.10
2019-04-26T09:47:54.137Z,36.20
2019-04-26T09:50:36.967Z,34.80
2019-04-26T09:53:05.093Z,35.10
2019-04-26T09:55:35.534Z,34.20
2019-04-26T09:58:02.600Z,35.90
2019-04-26T10:00:31.123Z,36.70
2019-04-26T10:02:59.059Z,34.30
2019-04-26T10:05:26.875Z,34.30
2019-04-26T10:07:54.676Z,32.10
2019-04-26T10:10:31.055Z,33.10
2019-04-26T10:13:06.128Z,30.20
2019-04-26T10:15:50.242Z,31.10
2019-04-26T10:18:20.415Z,31.80
2019-04-26T10:20:48.235Z,31.10
2019-04-26T10:23:17.158Z,30.70
2019-04-26T10:25:47.319Z,31.50
2019-04-26T10:28:17.090Z,31.60
2019-04-26T10:30:45.091Z,30.00
2019-04-26T10:33:14.164Z,29.80
2019-04-26T10:35:43.016Z,28.40
2019-04-26T10:38:10.733Z,29.00
2019-04-26T10:40:38.722Z,29.90
2019-04-26T10:43:07.527Z,29.00
2019-04-26T10:45:35.600Z,29.60
2019-04-26T10:48:04.153Z,29.40
2019-04-26T10:50:33.086Z,31.80
2019-04-26T10:53:20.673Z,27.20
2019-04-26T10:56:01.831Z,28.10
2019-04-26T10:58:36.565Z,27.50
2019-04-26T11:01:09.954Z,26.80
2019-04-26T11:03:39.723Z,23.90
2019-04-26T11:06:09.160Z,24.90
2019-04-26T11:08:36.887Z,23.70
2019-04-26T11:11:08.390Z,25.50
2019-04-26T11:13:36.555Z,25.00
2019-04-26T11:16:07.134Z,25.50
2019-04-26T11:18:35.107Z,25.20
2019-04-26T11:21:04.013Z,24.90
2019-04-26T11:23:31.751Z,22.50
2019-04-26T11:26:01.744Z,23.40
2019-04-26T11:28:29.440Z,22.20
2019-04-26T11:30:57.582Z,22.30
2019-04-26T11:33:27.423Z,22.10
2019-04-26T11:35:55.332Z,21.60
2019-04-26T11:38:26.980Z,22.00
2019-04-26T11:41:05.361Z,22.10
2019-04-26T11:43:22.462Z,22.70
2019-04-26T11:45:50.564Z,21.40
2019-04-26T11:48:18.601Z,22.40
2019-04-26T11:50:48.176Z,23.00
2019-04-26T11:53:16.323Z,24.30
2019-04-26T11:55:52.410Z,23.50
2019-04-26T11:58:22.672Z,24.00
2019-04-26T12:00:55.576Z,23.00
2019-04-26T12:03:24.893Z,24.20
2019-04-26T12:06:17.125Z,22.80
2019-04-26T12:08:47.602Z,23.80
2019-04-26T12:11:18.973Z,24.40
2019-04-26T12:13:45.238Z,23.10
2019-04-26T12:16:14.633Z,24.10
2019-04-26T12:18:44.141Z,22.00
2019-04-26T12:21:12.539Z,22.70
2019-04-26T12:23:40.334Z,23.10
2019-04-26T12:26:08.209Z,22.00
2019-04-26T12:28:36.343Z,20.30
2019-04-26T12:31:05.730Z,19.60
2019-04-26T12:33:33.523Z,19.90
2019-04-26T12:36:01.286Z,19.20
2019-04-26T12:38:31.032Z,19.90
2019-04-26T12:40:59.008Z,20.90
2019-04-26T12:43:26.940Z,19.80
2019-04-26T12:46:06.696Z,21.00
2019-04-26T12:48:34.373Z,19.10
2019-04-26T12:51:02.361Z,19.10
2019-04-26T12:53:31.269Z,19.60
2019-04-26T12:56:00.170Z,20.40
2019-04-26T12:58:29.937Z,20.10
2019-04-26T13:00:59.791Z,20.30
2019-04-26T13:03:30.414Z,18.90
2019-04-26T13:05:59.111Z,18.30
2019-04-26T13:08:27.092Z,19.20
2019-04-26T13:11:07.913Z,19.20
2019-04-26T13:14:16.093Z,18.20
2019-04-26T13:16:57.228Z,19.90
2019-04-26T13:19:25.111Z,19.40
2019-04-26T13:21:53.057Z,20.30
2019-04-26T13:24:20.968Z,19.90
2019-04-26T13:26:50.175Z,15.90
2019-04-26T13:29:19.445Z,17.60
2019-04-26T13:31:47.344Z,18.10
2019-04-26T13:34:15.173Z,17.80
2019-04-26T13:36:42.889Z,18.80
2019-04-26T13:39:13.378Z,18.70
2019-04-26T13:41:42.177Z,18.30
2019-04-26T13:44:10.311Z,17.90
2019-04-26T13:46:57.760Z,18.70
2019-04-26T13:49:33.523Z,17.60
2019-04-26T13:52:01.544Z,17.60
2019-04-26T13:54:29.278Z,19.70
2019-04-26T13:56:57.246Z,18.90
2019-04-26T13:59:28.173Z,18.80
2019-04-26T14:01:54.718Z,18.00
2019-04-26T14:04:22.501Z,20.30
2019-04-26T14:06:50.430Z,19.20
2019-04-26T14:09:18.328Z,19.10
2019-04-26T14:11:46.058Z,17.20
2019-04-26T14:14:14.042Z,17.20
2019-04-26T14:16:42.457Z,17.60
2019-04-26T14:19:14.912Z,17.00
2019-04-26T14:21:39.865Z,17.50
2019-04-26T14:24:25.214Z,17.50
2019-04-26T14:26:56.163Z,17.90
2019-04-26T14:29:24.248Z,17.60
2019-04-26T14:31:53.156Z,17.00
2019-04-26T14:34:21.084Z,17.50
2019-04-26T14:36:49.742Z,17.70
2019-04-26T14:39:20.973Z,18.00
2019-04-26T14:41:47.766Z,18.10
2019-04-26T14:44:16.201Z,17.20
2019-04-26T14:46:49.068Z,18.10
2019-04-26T14:49:13.867Z,19.40
2019-04-26T14:51:41.595Z,19.00
2019-04-26T14:54:11.532Z,18.70
2019-04-26T14:56:51.641Z,18.10
2019-04-26T14:59:10.278Z,18.80
2019-04-26T15:02:06.388Z,19.70
2019-04-26T15:04:47.849Z,19.30
2019-04-26T15:07:17.781Z,19.40
2019-04-26T15:09:45.538Z,18.70
2019-04-26T15:12:15.769Z,19.40
2019-04-26T15:14:43.340Z,19.50
2019-04-26T15:17:12.468Z,17.70
2019-04-26T15:19:45.904Z,18.10
2019-04-26T15:22:12.083Z,18.50
2019-04-26T15:24:40.029Z,18.60
2019-04-26T15:27:07.739Z,18.40
2019-04-26T15:29:35.788Z,18.20
2019-04-26T15:32:05.299Z,18.50
2019-04-26T15:34:33.381Z,20.70
2019-04-26T15:37:02.988Z,20.00
2019-04-26T15:39:38.491Z,19.70
2019-04-26T15:42:17.724Z,19.60
2019-04-26T15:44:50.937Z,19.90
2019-04-26T15:47:44.118Z,19.80
2019-04-26T15:50:50.518Z,19.60
2019-04-26T15:53:14.557Z,19.80
2019-04-26T15:55:43.580Z,20.00
2019-04-26T15:58:11.641Z,19.50
2019-04-26T16:00:39.582Z,19.20
2019-04-26T16:03:07.671Z,19.00
2019-04-26T16:05:38.502Z,19.00
2019-04-26T16:08:06.458Z,17.80
2019-04-26T16:10:38.238Z,19.50
2019-04-26T16:13:18.207Z,18.00
2019-04-26T16:15:33.959Z,19.70
2019-04-26T16:18:04.241Z,19.00
2019-04-26T16:20:37.597Z,18.20
2019-04-26T16:23:06.295Z,18.00
2019-04-26T16:25:34.450Z,18.20
2019-04-26T16:28:22.850Z,18.80
2019-04-26T16:31:16.176Z,18.30
2019-04-26T16:33:44.868Z,17.50
2019-04-26T16:36:12.734Z,17.20
2019-04-26T16:38:41.774Z,16.60
2019-04-26T16:41:13.783Z,18.00
2019-04-26T16:43:50.936Z,18.60
2019-04-26T16:46:12.649Z,17.50
2019-04-26T16:48:44.199Z,18.20
2019-04-26T16:51:10.695Z,18.20
2019-04-26T16:54:02.138Z,18.70
2019-04-26T16:56:08.366Z,17.90
2019-04-26T16:58:38.299Z,18.30
2019-04-26T17:01:10.031Z,18.20
2019-04-26T17:03:56.939Z,19.20
2019-04-26T17:06:24.685Z,17.60
2019-04-26T17:09:00.879Z,18.90
2019-04-26T17:11:22.950Z,18.80
2019-04-26T17:13:56.446Z,17.70
2019-04-26T17:16:22.464Z,18.20
2019-04-26T17:18:50.446Z,18.00
2019-04-26T17:21:23.856Z,17.90
2019-04-26T17:24:07.370Z,18.70
2019-04-26T17:26:36.314Z,18.70
2019-04-26T17:29:03.137Z,18.70
2019-04-26T17:31:31.658Z,18.90
2019-04-26T17:33:59.566Z,19.00
2019-04-26T17:36:27.459Z,19.10
2019-04-26T17:38:55.190Z,19.50
2019-04-26T17:41:23.083Z,19.50
2019-04-26T17:43:56.060Z,18.80
2019-04-26T17:46:21.628Z,19.30
2019-04-26T17:48:50.862Z,19.50
2019-04-26T17:51:22.411Z,19.50
2019-04-26T17:53:49.506Z,20.40
2019-04-26T17:56:18.451Z,19.80
2019-04-26T17:58:53.109Z,20.60
2019-04-26T18:01:41.171Z,19.90
2019-04-26T18:03:51.294Z,20.90
2019-04-26T18:06:15.633Z,21.20
2019-04-26T18:08:51.901Z,20.40
2019-04-26T18:11:19.530Z,21.40
2019-04-26T18:13:43.225Z,21.90
2019-04-26T18:16:17.799Z,20.90
2019-04-26T18:19:05.355Z,23.00
2019-04-26T18:22:04.813Z,22.90
2019-04-26T18:24:35.013Z,24.00
2019-04-26T18:27:08.828Z,24.70
2019-04-26T18:29:36.525Z,25.00
2019-04-26T18:32:05.805Z,25.90
2019-04-26T18:34:37.168Z,25.30
2019-04-26T18:37:07.125Z,26.50
2019-04-26T18:39:34.039Z,26.30
2019-04-26T18:42:02.968Z,27.20
2019-04-26T18:44:36.938Z,26.90
2019-04-26T18:47:14.698Z,26.90
2019-04-26T18:49:43.453Z,27.20
2019-04-26T18:52:11.147Z,27.40
2019-04-26T18:54:47.864Z,27.90
2019-04-26T18:57:17.091Z,28.40
2019-04-26T18:59:50.853Z,29.10
2019-04-26T19:02:18.751Z,30.00
2019-04-26T19:04:48.117Z,29.80
2019-04-26T19:07:31.009Z,30.40
2019-04-26T19:09:58.735Z,31.00
2019-04-26T19:12:23.364Z,30.90
2019-04-26T19:15:21.827Z,30.70
2019-04-26T19:18:05.306Z,32.10
2019-04-26T19:21:03.060Z,32.90
2019-04-26T19:23:32.091Z,33.20
2019-04-26T19:26:01.794Z,32.40
2019-04-26T19:28:31.221Z,33.70
2019-04-26T19:30:58.962Z,34.50
2019-04-26T19:33:26.876Z,35.50
2019-04-26T19:35:54.786Z,34.90
2019-04-26T19:38:23.786Z,34.30
2019-04-26T19:40:52.071Z,34.00
2019-04-26T19:43:30.732Z,35.20
2019-04-26T19:45:57.866Z,34.50
2019-04-26T19:48:33.302Z,35.30
2019-04-26T19:51:09.402Z,35.50
2019-04-26T19:53:51.758Z,34.60
2019-04-26T19:56:31.460Z,34.80
2019-04-26T19:58:59.618Z,34.70
2019-04-26T20:01:27.539Z,35.20
2019-04-26T20:03:55.523Z,35.00
2019-04-26T20:06:26.791Z,34.60
2019-04-26T20:08:55.493Z,34.00
2019-04-26T20:11:23.234Z,33.80
2019-04-26T20:13:55.160Z,33.60
2019-04-26T20:16:22.316Z,33.40
2019-04-26T20:18:53.188Z,33.50
2019-04-26T20:21:21.862Z,33.20
2019-04-26T20:23:52.672Z,33.90
2019-04-26T20:26:22.448Z,34.30
2019-04-26T20:28:51.362Z,35.50
2019-04-26T20:31:27.422Z,35.50
2019-04-26T20:33:59.213Z,35.50
2019-04-26T20:36:27.229Z,36.10
2019-04-26T20:38:55.485Z,37.60
2019-04-26T20:41:23.583Z,37.50
2019-04-26T20:44:04.434Z,37.10
2019-04-26T20:46:24.350Z,37.70
2019-04-26T20:48:52.447Z,38.40
2019-04-26T20:51:22.372Z,38.50
2019-04-26T20:53:49.928Z,39.10
2019-04-26T20:56:19.454Z,38.30
2019-04-26T20:58:47.377Z,38.90
2019-04-26T21:01:16.322Z,40.20
2019-04-26T21:03:45.890Z,40.80
2019-04-26T21:06:13.864Z,40.00
2019-04-26T21:08:42.393Z,40.30
2019-04-26T21:11:11.206Z,41.50
2019-04-26T21:13:41.525Z,39.60
2019-04-26T21:16:11.230Z,41.20
2019-04-26T21:18:40.206Z,41.00
2019-04-26T21:21:10.563Z,42.10
2019-04-26T21:23:40.146Z,42.80
2019-04-26T21:26:32.203Z,42.90
2019-04-26T21:29:20.503Z,43.50
2019-04-26T21:31:55.427Z,41.90
2019-04-26T21:34:26.583Z,42.90
2019-04-26T21:37:17.336Z,43.50
2019-04-26T21:40:06.116Z,43.60
2019-04-26T21:42:34.000Z,43.90
2019-04-26T21:45:03.556Z,44.30
2019-04-26T21:47:36.999Z,44.90
2019-04-26T21:50:04.298Z,43.80
2019-04-26T21:52:32.047Z,43.40
2019-04-26T21:54:59.746Z,44.40
2019-04-26T21:57:34.996Z,44.60
2019-04-26T22:00:07.353Z,44.80
2019-04-26T22:02:37.480Z,44.20
2019-04-26T22:05:08.140Z,45.00
2019-04-26T22:07:39.160Z,45.70
2019-04-26T22:10:14.246Z,45.20
2019-04-26T22:12:43.224Z,45.40
2019-04-26T22:15:37.485Z,46.40
2019-04-26T22:18:15.295Z,46.30
2019-04-26T22:20:55.570Z,45.30
2019-04-26T22:23:47.654Z,44.10
2019-04-26T22:26:16.654Z,46.00
2019-04-26T22:28:44.708Z,46.10
2019-04-26T22:31:13.379Z,46.60
2019-04-26T22:33:42.838Z,47.00
2019-04-26T22:36:13.194Z,47.00
2019-04-26T22:38:42.784Z,47.20
2019-04-26T22:41:10.886Z,45.80
2019-04-26T22:43:55.933Z,46.40
2019-04-26T22:46:47.427Z,45.90
2019-04-26T22:49:13.219Z,47.20
2019-04-26T22:51:41.255Z,46.80
2019-04-26T22:54:08.944Z,47.30
2019-04-26T22:56:38.276Z,47.40
2019-04-26T22:59:08.049Z,48.60
2019-04-26T23:01:39.155Z,47.90
2019-04-26T23:04:08.637Z,47.60
2019-04-26T23:06:36.477Z,49.00
2019-04-26T23:09:07.458Z,49.60
2019-04-26T23:11:39.496Z,49.20
2019-04-26T23:14:18.921Z,49.50
2019-04-26T23:17:18.912Z,48.70
2019-04-26T23:19:57.542Z,49.10
2019-04-26T23:22:30.971Z,50.20
2019-04-26T23:24:58.096Z,50.30
2019-04-26T23:27:25.044Z,49.90
2019-04-26T23:29:55.086Z,50.60
2019-04-26T23:32:23.453Z,52.10
2019-04-26T23:34:51.344Z,51.10
2019-04-26T23:37:19.391Z,50.90
2019-04-26T23:39:49.798Z,51.30
2019-04-26T23:42:18.615Z,52.00
2019-04-26T23:44:46.476Z,52.30
2019-04-26T23:47:21.064Z,52.50
2019-04-26T23:49:44.157Z,53.10
2019-04-26T23:52:14.503Z,54.60
2019-04-26T23:54:41.839Z,54.00
2019-04-26T23:57:09.525Z,54.00
2019-04-26T23:59:37.607Z,52.60
